KOXI

Starke County Airport

Knox, Indiana, USA
METAR KOXI 201115Z AUTO 29010G20KT 7SM SCT009 BKN014 OVC029 00/M01 A3011 RMK AO1
Observed Flight Rules
Nov-20 @ 11:15 UTC (24 minutes ago) Marginal Visual Flight Rules
Wind Visibility Clouds
290° at 10 knots
 Gusting to 20 knots
7 miles
  • Scattered at 900' AGL
  • Broken at 1,400' AGL
  • Overcast at 2,900' AGL
Temperatures Readings
Current 0°C / 32°F
Dewpoint -1°C / 30°F
Humidity 93%
Altimeter 30.11" Hg
Pressure 1020 hPa
Elevation 209
METAR KOXI 201115Z AUTO 29010G20KT 7SM SCT009 BKN014 OVC029 00/M01 A3011 RMK AO1
Observed Flight Rules
Nov-20 @ 11:15 UTC
(24 minutes ago)
MVFR
Wind Visibility
290° at 10 knots
 Gusting to 20 knots
7 miles
Clouds
  • Scattered at 900' AGL
  • Broken at 1,400' AGL
  • Overcast at 2,900' AGL
Temperature Dewpoint
0°C / 32°F -1°C / 30°F
Humidity Altimeter Pressure
93% 30.11" Hg 1020 hPa